sensor_id;sensor_type;location;lat;lon;timestamp;P1;durP1;ratioP1;P2;durP2;ratioP2
56746;SDS011;42623;49.978;9.966;2022-10-16T00:00:02;0.90;;;0.70;;
56746;SDS011;42623;49.978;9.966;2022-10-16T00:00:13;1.03;;;0.77;;
56746;SDS011;42623;49.978;9.966;2022-10-16T00:00:23;1.20;;;0.80;;
56746;SDS011;42623;49.978;9.966;2022-10-16T00:00:36;1.00;;;0.73;;
56746;SDS011;42623;49.978;9.966;2022-10-16T00:00:47;0.60;;;0.60;;
56746;SDS011;42623;49.978;9.966;2022-10-16T00:00:57;0.70;;;0.60;;
56746;SDS011;42623;49.978;9.966;2022-10-16T00:01:11;0.83;;;0.70;;
56746;SDS011;42623;49.978;9.966;2022-10-16T00:01:23;1.02;;;0.73;;
56746;SDS011;42623;49.978;9.966;2022-10-16T00:01:34;1.23;;;0.73;;
56746;SDS011;42623;49.978;9.966;2022-10-16T00:01:44;1.30;;;0.90;;
56746;SDS011;42623;49.978;9.966;2022-10-16T00:01:55;1.10;;;0.90;;
56746;SDS011;42623;49.978;9.966;2022-10-16T00:02:05;2.03;;;0.97;;
56746;SDS011;42623;49.978;9.966;2022-10-16T00:02:15;2.03;;;0.80;;
56746;SDS011;42623;49.978;9.966;2022-10-16T00:02:25;2.57;;;0.93;;
56746;SDS011;42623;49.978;9.966;2022-10-16T00:02:35;2.10;;;0.80;;
56746;SDS011;42623;49.978;9.966;2022-10-16T00:02:45;2.00;;;0.82;;
56746;SDS011;42623;49.978;9.966;2022-10-16T00:02:56;2.50;;;1.00;;
56746;SDS011;42623;49.978;9.966;2022-10-16T00:03:06;2.23;;;1.00;;
56746;SDS011;42623;49.978;9.966;2022-10-16T00:03:16;2.20;;;1.08;;
56746;SDS011;42623;49.978;9.966;2022-10-16T00:03:27;1.23;;;0.90;;
56746;SDS011;42623;49.978;9.966;2022-10-16T00:03:37;1.37;;;0.90;;
56746;SDS011;42623;49.978;9.966;2022-10-16T00:03:48;0.90;;;0.80;;
56746;SDS011;42623;49.978;9.966;2022-10-16T00:03:59;0.70;;;0.70;;
56746;SDS011;42623;49.978;9.966;2022-10-16T00:04:09;1.00;;;0.73;;
56746;SDS011;42623;49.978;9.966;2022-10-16T00:04:20;1.37;;;0.73;;
56746;SDS011;42623;49.978;9.966;2022-10-16T00:04:30;1.40;;;0.80;;
56746;SDS011;42623;49.978;9.966;2022-10-16T00:04:40;1.20;;;0.70;;
56746;SDS011;42623;49.978;9.966;2022-10-16T00:04:50;1.00;;;0.70;;
56746;SDS011;42623;49.978;9.966;2022-10-16T00:05:00;1.17;;;0.80;;
56746;SDS011;42623;49.978;9.966;2022-10-16T00:05:10;1.10;;;0.80;;
56746;SDS011;42623;49.978;9.966;2022-10-16T00:05:21;0.80;;;0.70;;
56746;SDS011;42623;49.978;9.966;2022-10-16T00:05:31;0.63;;;0.63;;
56746;SDS011;42623;49.978;9.966;2022-10-16T00:05:42;0.70;;;0.70;;
56746;SDS011;42623;49.978;9.966;2022-10-16T00:05:52;1.13;;;0.77;;
56746;SDS011;42623;49.978;9.966;2022-10-16T00:06:03;1.30;;;0.83;;
56746;SDS011;42623;49.978;9.966;2022-10-16T00:06:14;1.20;;;0.80;;
56746;SDS011;42623;49.978;9.966;2022-10-16T00:06:25;1.00;;;0.70;;
56746;SDS011;42623;49.978;9.966;2022-10-16T00:06:36;1.05;;;0.70;;
56746;SDS011;42623;49.978;9.966;2022-10-16T00:06:46;1.13;;;0.70;;
56746;SDS011;42623;49.978;9.966;2022-10-16T00:06:56;1.07;;;0.70;;
56746;SDS011;42623;49.978;9.966;2022-10-16T00:07:06;0.67;;;0.60;;
56746;SDS011;42623;49.978;9.966;2022-10-16T00:07:17;0.88;;;0.65;;
56746;SDS011;42623;49.978;9.966;2022-10-16T00:07:27;1.60;;;0.90;;
56746;SDS011;42623;49.978;9.966;2022-10-16T00:07:37;1.60;;;0.90;;
56746;SDS011;42623;49.978;9.966;2022-10-16T00:07:47;1.10;;;0.90;;
56746;SDS011;42623;49.978;9.966;2022-10-16T00:07:57;0.60;;;0.60;;
56746;SDS011;42623;49.978;9.966;2022-10-16T00:08:08;0.70;;;0.68;;
56746;SDS011;42623;49.978;9.966;2022-10-16T00:08:19;0.80;;;0.70;;
56746;SDS011;42623;49.978;9.966;2022-10-16T00:08:29;1.33;;;0.80;;
56746;SDS011;42623;49.978;9.966;2022-10-16T00:08:39;1.40;;;0.80;;
56746;SDS011;42623;49.978;9.966;2022-10-16T00:08:50;1.43;;;0.80;;
56746;SDS011;42623;49.978;9.966;2022-10-16T00:09:00;1.00;;;0.70;;
56746;SDS011;42623;49.978;9.966;2022-10-16T00:09:10;0.82;;;0.73;;
56746;SDS011;42623;49.978;9.966;2022-10-16T00:09:21;0.93;;;0.80;;
56746;SDS011;42623;49.978;9.966;2022-10-16T00:09:31;1.10;;;0.90;;
56746;SDS011;42623;49.978;9.966;2022-10-16T00:09:41;1.07;;;0.90;;
56746;SDS011;42623;49.978;9.966;2022-10-16T00:09:51;0.75;;;0.75;;
56746;SDS011;42623;49.978;9.966;2022-10-16T00:10:01;0.67;;;0.67;;
56746;SDS011;42623;49.978;9.966;2022-10-16T00:10:12;1.47;;;0.73;;
56746;SDS011;42623;49.978;9.966;2022-10-16T00:10:22;1.70;;;0.80;;
56746;SDS011;42623;49.978;9.966;2022-10-16T00:10:32;1.53;;;0.80;;
56746;SDS011;42623;49.978;9.966;2022-10-16T00:10:42;0.70;;;0.70;;
56746;SDS011;42623;49.978;9.966;2022-10-16T00:10:52;0.73;;;0.70;;
56746;SDS011;42623;49.978;9.966;2022-10-16T00:11:04;1.03;;;0.77;;
56746;SDS011;42623;49.978;9.966;2022-10-16T00:11:18;1.30;;;0.73;;
56746;SDS011;42623;49.978;9.966;2022-10-16T00:11:30;1.08;;;0.70;;
56746;SDS011;42623;49.978;9.966;2022-10-16T00:11:43;0.85;;;0.80;;
56746;SDS011;42623;49.978;9.966;2022-10-16T00:11:53;0.80;;;0.80;;
56746;SDS011;42623;49.978;9.966;2022-10-16T00:12:03;0.80;;;0.80;;
56746;SDS011;42623;49.978;9.966;2022-10-16T00:12:16;0.73;;;0.70;;
56746;SDS011;42623;49.978;9.966;2022-10-16T00:12:26;1.33;;;0.80;;
56746;SDS011;42623;49.978;9.966;2022-10-16T00:12:36;1.40;;;0.80;;
56746;SDS011;42623;49.978;9.966;2022-10-16T00:12:47;1.03;;;0.77;;
56746;SDS011;42623;49.978;9.966;2022-10-16T00:12:57;0.52;;;0.52;;
56746;SDS011;42623;49.978;9.966;2022-10-16T00:13:07;0.83;;;0.73;;
56746;SDS011;42623;49.978;9.966;2022-10-16T00:13:17;1.23;;;0.80;;
56746;SDS011;42623;49.978;9.966;2022-10-16T00:13:29;2.08;;;1.33;;
56746;SDS011;42623;49.978;9.966;2022-10-16T00:13:40;1.55;;;1.15;;
56746;SDS011;42623;49.978;9.966;2022-10-16T00:13:51;1.30;;;1.10;;
56746;SDS011;42623;49.978;9.966;2022-10-16T00:14:05;0.63;;;0.63;;
56746;SDS011;42623;49.978;9.966;2022-10-16T00:14:15;1.30;;;0.70;;
56746;SDS011;42623;49.978;9.966;2022-10-16T00:14:26;1.53;;;0.80;;
56746;SDS011;42623;49.978;9.966;2022-10-16T00:14:36;1.30;;;0.80;;
56746;SDS011;42623;49.978;9.966;2022-10-16T00:14:46;1.20;;;0.90;;
56746;SDS011;42623;49.978;9.966;2022-10-16T00:14:56;2.47;;;1.03;;
56746;SDS011;42623;49.978;9.966;2022-10-16T00:15:06;3.17;;;1.13;;
56746;SDS011;42623;49.978;9.966;2022-10-16T00:15:16;3.10;;;1.20;;
56746;SDS011;42623;49.978;9.966;2022-10-16T00:15:27;1.43;;;0.93;;
56746;SDS011;42623;49.978;9.966;2022-10-16T00:15:37;1.35;;;0.75;;
56746;SDS011;42623;49.978;9.966;2022-10-16T00:15:49;1.20;;;0.70;;
56746;SDS011;42623;49.978;9.966;2022-10-16T00:15:59;1.13;;;0.70;;
56746;SDS011;42623;49.978;9.966;2022-10-16T00:16:10;1.05;;;0.80;;
56746;SDS011;42623;49.978;9.966;2022-10-16T00:16:20;1.48;;;0.80;;
56746;SDS011;42623;49.978;9.966;2022-10-16T00:16:31;1.77;;;0.87;;
56746;SDS011;42623;49.978;9.966;2022-10-16T00:16:41;1.60;;;0.90;;
56746;SDS011;42623;49.978;9.966;2022-10-16T00:16:52;2.00;;;1.10;;
56746;SDS011;42623;49.978;9.966;2022-10-16T00:17:02;1.70;;;1.10;;
56746;SDS011;42623;49.978;9.966;2022-10-16T00:17:12;1.95;;;1.17;;
56746;SDS011;42623;49.978;9.966;2022-10-16T00:17:22;1.23;;;1.00;;
56746;SDS011;42623;49.978;9.966;2022-10-16T00:17:32;1.50;;;1.00;;
56746;SDS011;42623;49.978;9.966;2022-10-16T00:17:42;1.47;;;0.90;;
56746;SDS011;42623;49.978;9.966;2022-10-16T00:17:52;1.87;;;1.13;;
56746;SDS011;42623;49.978;9.966;2022-10-16T00:18:03;1.60;;;1.07;;
56746;SDS011;42623;49.978;9.966;2022-10-16T00:18:14;1.60;;;1.00;;
56746;SDS011;42623;49.978;9.966;2022-10-16T00:18:24;1.27;;;0.70;;
56746;SDS011;42623;49.978;9.966;2022-10-16T00:18:35;1.38;;;0.80;;
56746;SDS011;42623;49.978;9.966;2022-10-16T00:18:46;1.60;;;1.00;;
56746;SDS011;42623;49.978;9.966;2022-10-16T00:18:56;1.50;;;0.90;;
56746;SDS011;42623;49.978;9.966;2022-10-16T00:19:07;1.57;;;0.93;;
56746;SDS011;42623;49.978;9.966;2022-10-16T00:19:17;1.65;;;1.02;;
56746;SDS011;42623;49.978;9.966;2022-10-16T00:19:27;2.00;;;1.03;;
56746;SDS011;42623;49.978;9.966;2022-10-16T00:19:37;1.37;;;0.80;;
56746;SDS011;42623;49.978;9.966;2022-10-16T00:19:47;1.20;;;0.80;;
56746;SDS011;42623;49.978;9.966;2022-10-16T00:19:57;1.08;;;0.82;;
56746;SDS011;42623;49.978;9.966;2022-10-16T00:20:08;1.10;;;0.90;;
56746;SDS011;42623;49.978;9.966;2022-10-16T00:20:18;0.90;;;0.83;;
56746;SDS011;42623;49.978;9.966;2022-10-16T00:20:28;0.97;;;0.77;;
56746;SDS011;42623;49.978;9.966;2022-10-16T00:20:38;1.30;;;0.90;;
56746;SDS011;42623;49.978;9.966;2022-10-16T00:20:48;1.48;;;0.90;;
56746;SDS011;42623;49.978;9.966;2022-10-16T00:21:02;1.50;;;1.00;;
56746;SDS011;42623;49.978;9.966;2022-10-16T00:21:14;1.50;;;0.90;;
56746;SDS011;42623;49.978;9.966;2022-10-16T00:21:26;1.60;;;0.95;;
56746;SDS011;42623;49.978;9.966;2022-10-16T00:21:36;1.75;;;1.05;;
56746;SDS011;42623;49.978;9.966;2022-10-16T00:21:46;2.15;;;1.17;;
56746;SDS011;42623;49.978;9.966;2022-10-16T00:21:56;1.93;;;1.13;;
56746;SDS011;42623;49.978;9.966;2022-10-16T00:22:07;1.50;;;0.97;;
56746;SDS011;42623;49.978;9.966;2022-10-16T00:22:17;1.43;;;0.90;;
56746;SDS011;42623;49.978;9.966;2022-10-16T00:22:27;1.67;;;1.00;;
56746;SDS011;42623;49.978;9.966;2022-10-16T00:22:37;2.00;;;0.93;;
56746;SDS011;42623;49.978;9.966;2022-10-16T00:22:47;2.10;;;0.90;;
56746;SDS011;42623;49.978;9.966;2022-10-16T00:22:57;1.93;;;0.93;;
56746;SDS011;42623;49.978;9.966;2022-10-16T00:23:07;1.43;;;0.97;;
56746;SDS011;42623;49.978;9.966;2022-10-16T00:23:20;1.30;;;0.93;;
56746;SDS011;42623;49.978;9.966;2022-10-16T00:23:30;2.67;;;1.10;;
56746;SDS011;42623;49.978;9.966;2022-10-16T00:23:41;2.90;;;1.20;;
56746;SDS011;42623;49.978;9.966;2022-10-16T00:23:52;3.10;;;1.20;;
56746;SDS011;42623;49.978;9.966;2022-10-16T00:24:04;1.75;;;1.08;;
56746;SDS011;42623;49.978;9.966;2022-10-16T00:24:14;1.67;;;0.90;;
56746;SDS011;42623;49.978;9.966;2022-10-16T00:24:24;1.70;;;1.00;;
56746;SDS011;42623;49.978;9.966;2022-10-16T00:24:34;1.50;;;0.90;;
56746;SDS011;42623;49.978;9.966;2022-10-16T00:24:44;1.13;;;0.80;;
56746;SDS011;42623;49.978;9.966;2022-10-16T00:24:54;1.07;;;0.80;;
56746;SDS011;42623;49.978;9.966;2022-10-16T00:25:05;1.10;;;0.90;;
56746;SDS011;42623;49.978;9.966;2022-10-16T00:25:15;1.50;;;1.00;;
56746;SDS011;42623;49.978;9.966;2022-10-16T00:25:25;1.70;;;1.00;;
56746;SDS011;42623;49.978;9.966;2022-10-16T00:25:35;1.73;;;0.90;;
56746;SDS011;42623;49.978;9.966;2022-10-16T00:25:54;1.70;;;0.90;;
56746;SDS011;42623;49.978;9.966;2022-10-16T00:26:05;2.30;;;1.00;;
56746;SDS011;42623;49.978;9.966;2022-10-16T00:26:16;2.53;;;1.10;;
56746;SDS011;42623;49.978;9.966;2022-10-16T00:26:27;2.00;;;1.03;;
56746;SDS011;42623;49.978;9.966;2022-10-16T00:26:38;1.25;;;0.90;;
56746;SDS011;42623;49.978;9.966;2022-10-16T00:26:49;0.90;;;0.83;;
56746;SDS011;42623;49.978;9.966;2022-10-16T00:26:59;0.85;;;0.82;;
56746;SDS011;42623;49.978;9.966;2022-10-16T00:27:09;1.08;;;0.88;;
56746;SDS011;42623;49.978;9.966;2022-10-16T00:27:19;1.20;;;0.90;;
56746;SDS011;42623;49.978;9.966;2022-10-16T00:27:30;1.33;;;0.90;;
56746;SDS011;42623;49.978;9.966;2022-10-16T00:27:40;1.03;;;0.80;;
56746;SDS011;42623;49.978;9.966;2022-10-16T00:27:50;0.93;;;0.80;;
56746;SDS011;42623;49.978;9.966;2022-10-16T00:28:00;0.70;;;0.70;;
56746;SDS011;42623;49.978;9.966;2022-10-16T00:28:10;0.77;;;0.77;;
56746;SDS011;42623;49.978;9.966;2022-10-16T00:28:20;1.00;;;0.80;;
56746;SDS011;42623;49.978;9.966;2022-10-16T00:28:31;1.30;;;0.80;;
56746;SDS011;42623;49.978;9.966;2022-10-16T00:28:41;1.37;;;0.83;;
56746;SDS011;42623;49.978;9.966;2022-10-16T00:28:51;1.42;;;0.85;;
56746;SDS011;42623;49.978;9.966;2022-10-16T00:29:02;1.63;;;1.30;;
56746;SDS011;42623;49.978;9.966;2022-10-16T00:29:12;2.20;;;1.45;;
56746;SDS011;42623;49.978;9.966;2022-10-16T00:29:22;2.03;;;1.40;;
56746;SDS011;42623;49.978;9.966;2022-10-16T00:29:33;1.67;;;1.00;;
56746;SDS011;42623;49.978;9.966;2022-10-16T00:29:43;1.40;;;0.93;;
56746;SDS011;42623;49.978;9.966;2022-10-16T00:29:53;1.38;;;0.90;;
56746;SDS011;42623;49.978;9.966;2022-10-16T00:30:03;1.10;;;0.77;;
56746;SDS011;42623;49.978;9.966;2022-10-16T00:30:14;0.70;;;0.57;;
56746;SDS011;42623;49.978;9.966;2022-10-16T00:30:24;0.57;;;0.57;;
56746;SDS011;42623;49.978;9.966;2022-10-16T00:30:39;1.45;;;0.85;;
56746;SDS011;42623;49.978;9.966;2022-10-16T00:30:49;1.80;;;1.00;;
56746;SDS011;42623;49.978;9.966;2022-10-16T00:31:02;1.50;;;0.90;;
56746;SDS011;42623;49.978;9.966;2022-10-16T00:31:12;1.00;;;0.70;;
56746;SDS011;42623;49.978;9.966;2022-10-16T00:31:23;0.70;;;0.60;;
56746;SDS011;42623;49.978;9.966;2022-10-16T00:31:33;1.10;;;0.70;;
56746;SDS011;42623;49.978;9.966;2022-10-16T00:31:43;1.20;;;0.73;;
56746;SDS011;42623;49.978;9.966;2022-10-16T00:31:54;1.30;;;0.80;;
56746;SDS011;42623;49.978;9.966;2022-10-16T00:32:04;1.13;;;0.83;;
56746;SDS011;42623;49.978;9.966;2022-10-16T00:32:14;1.00;;;0.77;;
56746;SDS011;42623;49.978;9.966;2022-10-16T00:32:24;1.50;;;0.87;;
56746;SDS011;42623;49.978;9.966;2022-10-16T00:32:34;2.50;;;0.90;;
56746;SDS011;42623;49.978;9.966;2022-10-16T00:32:45;2.63;;;0.97;;
56746;SDS011;42623;49.978;9.966;2022-10-16T00:32:55;2.00;;;1.03;;
56746;SDS011;42623;49.978;9.966;2022-10-16T00:33:06;1.25;;;1.00;;
56746;SDS011;42623;49.978;9.966;2022-10-16T00:33:16;1.23;;;1.00;;
56746;SDS011;42623;49.978;9.966;2022-10-16T00:33:26;0.90;;;0.80;;
56746;SDS011;42623;49.978;9.966;2022-10-16T00:33:37;0.90;;;0.77;;
56746;SDS011;42623;49.978;9.966;2022-10-16T00:33:47;1.00;;;0.80;;
56746;SDS011;42623;49.978;9.966;2022-10-16T00:33:58;1.38;;;1.00;;
56746;SDS011;42623;49.978;9.966;2022-10-16T00:34:08;1.10;;;0.90;;
56746;SDS011;42623;49.978;9.966;2022-10-16T00:34:18;1.17;;;0.97;;
56746;SDS011;42623;49.978;9.966;2022-10-16T00:34:28;1.20;;;0.90;;
56746;SDS011;42623;49.978;9.966;2022-10-16T00:34:38;1.15;;;0.90;;
56746;SDS011;42623;49.978;9.966;2022-10-16T00:34:48;0.83;;;0.80;;
56746;SDS011;42623;49.978;9.966;2022-10-16T00:34:58;1.13;;;0.97;;
56746;SDS011;42623;49.978;9.966;2022-10-16T00:35:09;1.37;;;1.00;;
56746;SDS011;42623;49.978;9.966;2022-10-16T00:35:19;1.33;;;1.00;;
56746;SDS011;42623;49.978;9.966;2022-10-16T00:35:30;0.80;;;0.70;;
56746;SDS011;42623;49.978;9.966;2022-10-16T00:35:40;1.05;;;0.85;;
56746;SDS011;42623;49.978;9.966;2022-10-16T00:35:50;1.53;;;1.00;;
56746;SDS011;42623;49.978;9.966;2022-10-16T00:36:01;1.57;;;1.00;;
56746;SDS011;42623;49.978;9.966;2022-10-16T00:36:13;1.30;;;0.85;;
56746;SDS011;42623;49.978;9.966;2022-10-16T00:36:24;0.82;;;0.70;;
56746;SDS011;42623;49.978;9.966;2022-10-16T00:36:35;0.70;;;0.70;;
56746;SDS011;42623;49.978;9.966;2022-10-16T00:36:45;1.08;;;0.80;;
56746;SDS011;42623;49.978;9.966;2022-10-16T00:36:55;1.53;;;0.93;;
56746;SDS011;42623;49.978;9.966;2022-10-16T00:37:05;1.63;;;0.90;;
56746;SDS011;42623;49.978;9.966;2022-10-16T00:37:16;0.97;;;0.70;;
56746;SDS011;42623;49.978;9.966;2022-10-16T00:37:26;0.55;;;0.50;;
56746;SDS011;42623;49.978;9.966;2022-10-16T00:37:36;0.50;;;0.50;;
56746;SDS011;42623;49.978;9.966;2022-10-16T00:37:46;0.80;;;0.60;;
56746;SDS011;42623;49.978;9.966;2022-10-16T00:37:56;1.00;;;0.80;;
56746;SDS011;42623;49.978;9.966;2022-10-16T00:38:07;0.90;;;0.80;;
56746;SDS011;42623;49.978;9.966;2022-10-16T00:38:17;0.77;;;0.70;;
56746;SDS011;42623;49.978;9.966;2022-10-16T00:38:27;0.77;;;0.70;;
56746;SDS011;42623;49.978;9.966;2022-10-16T00:38:37;0.80;;;0.70;;
56746;SDS011;42623;49.978;9.966;2022-10-16T00:38:50;1.05;;;0.73;;
56746;SDS011;42623;49.978;9.966;2022-10-16T00:39:02;1.15;;;0.80;;
56746;SDS011;42623;49.978;9.966;2022-10-16T00:39:13;0.90;;;0.80;;
56746;SDS011;42623;49.978;9.966;2022-10-16T00:39:23;1.80;;;1.10;;
56746;SDS011;42623;49.978;9.966;2022-10-16T00:39:34;2.15;;;1.13;;
56746;SDS011;42623;49.978;9.966;2022-10-16T00:39:44;2.23;;;1.20;;
56746;SDS011;42623;49.978;9.966;2022-10-16T00:39:55;1.47;;;0.90;;
56746;SDS011;42623;49.978;9.966;2022-10-16T00:40:05;1.33;;;0.90;;
56746;SDS011;42623;49.978;9.966;2022-10-16T00:40:16;1.73;;;0.90;;
56746;SDS011;42623;49.978;9.966;2022-10-16T00:40:26;2.00;;;0.90;;
56746;SDS011;42623;49.978;9.966;2022-10-16T00:40:38;1.90;;;0.80;;
56746;SDS011;42623;49.978;9.966;2022-10-16T00:40:48;1.42;;;0.70;;
56746;SDS011;42623;49.978;9.966;2022-10-16T00:40:59;0.90;;;0.67;;
56746;SDS011;42623;49.978;9.966;2022-10-16T00:41:11;1.20;;;0.70;;
56746;SDS011;42623;49.978;9.966;2022-10-16T00:41:22;1.73;;;0.88;;
56746;SDS011;42623;49.978;9.966;2022-10-16T00:41:32;1.70;;;0.98;;
56746;SDS011;42623;49.978;9.966;2022-10-16T00:41:43;1.83;;;1.00;;
56746;SDS011;42623;49.978;9.966;2022-10-16T00:41:53;1.47;;;0.87;;
56746;SDS011;42623;49.978;9.966;2022-10-16T00:42:03;1.27;;;0.87;;
56746;SDS011;42623;49.978;9.966;2022-10-16T00:42:17;1.13;;;0.87;;
56746;SDS011;42623;49.978;9.966;2022-10-16T00:42:27;1.02;;;0.75;;
56746;SDS011;42623;49.978;9.966;2022-10-16T00:42:38;1.73;;;0.70;;
56746;SDS011;42623;49.978;9.966;2022-10-16T00:42:48;2.13;;;0.73;;
56746;SDS011;42623;49.978;9.966;2022-10-16T00:42:58;3.20;;;0.90;;
56746;SDS011;42623;49.978;9.966;2022-10-16T00:43:33;2.37;;;0.90;;
56746;SDS011;42623;49.978;9.966;2022-10-16T00:43:45;1.40;;;0.98;;
56746;SDS011;42623;49.978;9.966;2022-10-16T00:43:56;1.77;;;1.10;;
56746;SDS011;42623;49.978;9.966;2022-10-16T00:44:51;0.70;;;0.65;;
56746;SDS011;42623;49.978;9.966;2022-10-16T00:45:06;1.00;;;0.73;;
56746;SDS011;42623;49.978;9.966;2022-10-16T00:45:16;0.93;;;0.70;;
56746;SDS011;42623;49.978;9.966;2022-10-16T00:45:27;1.20;;;0.70;;
56746;SDS011;42623;49.978;9.966;2022-10-16T00:45:37;1.03;;;0.70;;
56746;SDS011;42623;49.978;9.966;2022-10-16T00:45:47;0.93;;;0.73;;
56746;SDS011;42623;49.978;9.966;2022-10-16T00:45:58;0.73;;;0.70;;
56746;SDS011;42623;49.978;9.966;2022-10-16T00:46:10;0.70;;;0.70;;
56746;SDS011;42623;49.978;9.966;2022-10-16T00:46:29;1.02;;;0.73;;
56746;SDS011;42623;49.978;9.966;2022-10-16T00:46:43;1.73;;;1.00;;
56746;SDS011;42623;49.978;9.966;2022-10-16T00:46:53;1.75;;;1.10;;
56746;SDS011;42623;49.978;9.966;2022-10-16T00:47:03;1.53;;;1.00;;
56746;SDS011;42623;49.978;9.966;2022-10-16T00:47:34;1.50;;;0.70;;
56746;SDS011;42623;49.978;9.966;2022-10-16T00:47:46;1.05;;;0.75;;
56746;SDS011;42623;49.978;9.966;2022-10-16T00:47:59;1.33;;;0.82;;
56746;SDS011;42623;49.978;9.966;2022-10-16T00:48:10;1.60;;;0.90;;
56746;SDS011;42623;49.978;9.966;2022-10-16T00:48:24;1.40;;;0.90;;
56746;SDS011;42623;49.978;9.966;2022-10-16T00:48:34;0.73;;;0.73;;
56746;SDS011;42623;49.978;9.966;2022-10-16T00:48:55;0.63;;;0.63;;
56746;SDS011;42623;49.978;9.966;2022-10-16T00:49:16;0.80;;;0.68;;
56746;SDS011;42623;49.978;9.966;2022-10-16T00:49:26;1.23;;;0.80;;
56746;SDS011;42623;49.978;9.966;2022-10-16T00:49:36;1.17;;;0.90;;
56746;SDS011;42623;49.978;9.966;2022-10-16T00:49:47;1.20;;;0.83;;
56746;SDS011;42623;49.978;9.966;2022-10-16T00:50:02;2.22;;;0.95;;
56746;SDS011;42623;49.978;9.966;2022-10-16T00:50:18;2.15;;;0.80;;
56746;SDS011;42623;49.978;9.966;2022-10-16T00:50:32;1.30;;;0.80;;
56746;SDS011;42623;49.978;9.966;2022-10-16T00:50:43;1.13;;;0.80;;
56746;SDS011;42623;49.978;9.966;2022-10-16T00:50:53;1.27;;;0.85;;
56746;SDS011;42623;49.978;9.966;2022-10-16T00:51:04;1.43;;;0.90;;
56746;SDS011;42623;49.978;9.966;2022-10-16T00:51:16;1.85;;;0.98;;
56746;SDS011;42623;49.978;9.966;2022-10-16T00:51:30;1.35;;;0.90;;
56746;SDS011;42623;49.978;9.966;2022-10-16T00:51:42;1.30;;;0.93;;
56746;SDS011;42623;49.978;9.966;2022-10-16T00:51:53;1.08;;;0.80;;
56746;SDS011;42623;49.978;9.966;2022-10-16T00:52:03;1.40;;;0.90;;
56746;SDS011;42623;49.978;9.966;2022-10-16T00:52:15;1.10;;;0.90;;
56746;SDS011;42623;49.978;9.966;2022-10-16T00:52:26;1.02;;;0.90;;
56746;SDS011;42623;49.978;9.966;2022-10-16T00:52:36;1.10;;;0.80;;
56746;SDS011;42623;49.978;9.966;2022-10-16T00:52:49;1.30;;;0.90;;
56746;SDS011;42623;49.978;9.966;2022-10-16T00:53:00;1.30;;;0.87;;
56746;SDS011;42623;49.978;9.966;2022-10-16T00:53:11;1.08;;;0.88;;
56746;SDS011;42623;49.978;9.966;2022-10-16T00:53:21;1.23;;;0.90;;
56746;SDS011;42623;49.978;9.966;2022-10-16T00:53:33;2.10;;;1.20;;
56746;SDS011;42623;49.978;9.966;2022-10-16T00:53:43;1.77;;;1.03;;
56746;SDS011;42623;49.978;9.966;2022-10-16T00:53:54;1.83;;;1.03;;
56746;SDS011;42623;49.978;9.966;2022-10-16T00:54:07;1.27;;;0.85;;
56746;SDS011;42623;49.978;9.966;2022-10-16T00:54:22;1.42;;;0.88;;
56746;SDS011;42623;49.978;9.966;2022-10-16T00:54:32;1.38;;;0.80;;
56746;SDS011;42623;49.978;9.966;2022-10-16T00:54:43;1.17;;;0.80;;
56746;SDS011;42623;49.978;9.966;2022-10-16T00:54:54;0.80;;;0.70;;
56746;SDS011;42623;49.978;9.966;2022-10-16T00:55:05;1.20;;;0.90;;
56746;SDS011;42623;49.978;9.966;2022-10-16T00:55:16;1.30;;;0.90;;
56746;SDS011;42623;49.978;9.966;2022-10-16T00:55:26;1.40;;;1.00;;
56746;SDS011;42623;49.978;9.966;2022-10-16T00:55:37;1.58;;;0.80;;
56746;SDS011;42623;49.978;9.966;2022-10-16T00:55:48;1.80;;;0.90;;
56746;SDS011;42623;49.978;9.966;2022-10-16T00:55:58;1.73;;;0.80;;
56746;SDS011;42623;49.978;9.966;2022-10-16T00:56:08;1.23;;;0.77;;
56746;SDS011;42623;49.978;9.966;2022-10-16T00:56:18;0.90;;;0.60;;
56746;SDS011;42623;49.978;9.966;2022-10-16T00:56:28;1.00;;;0.70;;
56746;SDS011;42623;49.978;9.966;2022-10-16T00:56:39;0.87;;;0.70;;
56746;SDS011;42623;49.978;9.966;2022-10-16T00:56:49;0.80;;;0.63;;
56746;SDS011;42623;49.978;9.966;2022-10-16T00:57:01;0.82;;;0.70;;
56746;SDS011;42623;49.978;9.966;2022-10-16T00:57:11;0.90;;;0.70;;
56746;SDS011;42623;49.978;9.966;2022-10-16T00:57:22;0.80;;;0.70;;
56746;SDS011;42623;49.978;9.966;2022-10-16T00:57:32;0.77;;;0.68;;
56746;SDS011;42623;49.978;9.966;2022-10-16T00:57:43;0.83;;;0.73;;
56746;SDS011;42623;49.978;9.966;2022-10-16T00:57:53;1.15;;;0.90;;
56746;SDS011;42623;49.978;9.966;2022-10-16T00:58:04;0.97;;;0.80;;
56746;SDS011;42623;49.978;9.966;2022-10-16T00:58:14;1.05;;;0.70;;
56746;SDS011;42623;49.978;9.966;2022-10-16T00:58:24;0.70;;;0.60;;
56746;SDS011;42623;49.978;9.966;2022-10-16T00:58:34;1.10;;;0.70;;
56746;SDS011;42623;49.978;9.966;2022-10-16T00:58:45;1.17;;;0.70;;
56746;SDS011;42623;49.978;9.966;2022-10-16T00:58:55;1.50;;;0.80;;
56746;SDS011;42623;49.978;9.966;2022-10-16T00:59:06;1.47;;;0.90;;
56746;SDS011;42623;49.978;9.966;2022-10-16T01:00:05;1.15;;;0.88;;
56746;SDS011;42623;49.978;9.966;2022-10-16T01:00:18;1.50;;;0.98;;
56746;SDS011;42623;49.978;9.966;2022-10-16T01:00:28;1.38;;;0.88;;
56746;SDS011;42623;49.978;9.966;2022-10-16T01:00:39;1.25;;;0.85;;
56746;SDS011;42623;49.978;9.966;2022-10-16T01:00:49;1.30;;;0.80;;
56746;SDS011;42623;49.978;9.966;2022-10-16T01:00:59;1.07;;;0.77;;
56746;SDS011;42623;49.978;9.966;2022-10-16T01:01:09;0.93;;;0.70;;
56746;SDS011;42623;49.978;9.966;2022-10-16T01:01:19;0.80;;;0.70;;
56746;SDS011;42623;49.978;9.966;2022-10-16T01:01:30;0.88;;;0.70;;
56746;SDS011;42623;49.978;9.966;2022-10-16T01:01:40;1.33;;;0.77;;
56746;SDS011;42623;49.978;9.966;2022-10-16T01:01:51;1.87;;;0.80;;
56746;SDS011;42623;49.978;9.966;2022-10-16T01:02:01;2.15;;;0.80;;
56746;SDS011;42623;49.978;9.966;2022-10-16T01:02:13;2.40;;;0.88;;
56746;SDS011;42623;49.978;9.966;2022-10-16T01:02:23;1.80;;;0.86;;
56746;SDS011;42623;49.978;9.966;2022-10-16T01:02:33;1.00;;;0.70;;
56746;SDS011;42623;49.978;9.966;2022-10-16T01:02:44;1.00;;;0.70;;
56746;SDS011;42623;49.978;9.966;2022-10-16T01:02:58;0.97;;;0.70;;
56746;SDS011;42623;49.978;9.966;2022-10-16T01:03:22;1.40;;;0.82;;
56746;SDS011;42623;49.978;9.966;2022-10-16T01:03:34;1.60;;;0.93;;
56746;SDS011;42623;49.978;9.966;2022-10-16T01:03:45;1.58;;;0.82;;
56746;SDS011;42623;49.978;9.966;2022-10-16T01:03:55;1.67;;;0.83;;
56746;SDS011;42623;49.978;9.966;2022-10-16T01:04:06;1.27;;;0.80;;
56746;SDS011;42623;49.978;9.966;2022-10-16T01:04:16;1.60;;;0.90;;
56746;SDS011;42623;49.978;9.966;2022-10-16T01:04:26;1.60;;;0.90;;
56746;SDS011;42623;49.978;9.966;2022-10-16T01:04:39;1.48;;;0.80;;
56746;SDS011;42623;49.978;9.966;2022-10-16T01:04:51;1.27;;;0.70;;
56746;SDS011;42623;49.978;9.966;2022-10-16T01:05:02;1.33;;;0.77;;
56746;SDS011;42623;49.978;9.966;2022-10-16T01:05:12;1.43;;;0.87;;
56746;SDS011;42623;49.978;9.966;2022-10-16T01:05:23;1.17;;;0.77;;
56746;SDS011;42623;49.978;9.966;2022-10-16T01:05:44;0.80;;;0.68;;
56746;SDS011;42623;49.978;9.966;2022-10-16T01:06:05;1.50;;;0.80;;
56746;SDS011;42623;49.978;9.966;2022-10-16T01:06:22;2.02;;;0.96;;
56746;SDS011;42623;49.978;9.966;2022-10-16T01:06:46;1.08;;;0.70;;
56746;SDS011;42623;49.978;9.966;2022-10-16T01:07:20;0.73;;;0.70;;
56746;SDS011;42623;49.978;9.966;2022-10-16T01:08:17;0.70;;;0.70;;
56746;SDS011;42623;49.978;9.966;2022-10-16T01:08:18;1.10;;;0.83;;
56746;SDS011;42623;49.978;9.966;2022-10-16T01:08:39;0.82;;;0.70;;
56746;SDS011;42623;49.978;9.966;2022-10-16T01:09:13;0.98;;;0.70;;
56746;SDS011;42623;49.978;9.966;2022-10-16T01:09:46;0.77;;;0.73;;
56746;SDS011;42623;49.978;9.966;2022-10-16T01:10:35;0.60;;;0.60;;
56746;SDS011;42623;49.978;9.966;2022-10-16T01:10:57;0.50;;;0.50;;
56746;SDS011;42623;49.978;9.966;2022-10-16T01:11:31;1.38;;;0.80;;